createdAt,value
2017-03-26T00:00:09.537Z,19.29
2017-03-26T00:01:19.188Z,19.34
2017-03-26T00:02:29.148Z,19.24
2017-03-26T00:03:39.419Z,19.29
2017-03-26T00:04:49.070Z,19.3
2017-03-26T00:05:59.587Z,19.26
2017-03-26T00:07:09.550Z,19.23
2017-03-26T00:08:19.819Z,19.29
2017-03-26T00:09:29.708Z,19.37
2017-03-26T00:10:39.664Z,19.27
2017-03-26T00:11:49.880Z,19.27
2017-03-26T00:13:00.145Z,19.29
2017-03-26T00:14:10.112Z,19.35
2017-03-26T00:15:20.402Z,19.29
2017-03-26T00:16:30.376Z,19.34
2017-03-26T00:17:40.959Z,19.32
2017-03-26T00:18:50.603Z,19.24
2017-03-26T00:20:00.569Z,19.27
2017-03-26T00:21:10.842Z,19.26
2017-03-26T00:22:21.114Z,19.24
2017-03-26T00:23:31.642Z,19.27
2017-03-26T00:24:41.304Z,19.24
2017-03-26T00:25:51.263Z,19.22
2017-03-26T00:27:01.232Z,19.26
2017-03-26T00:28:11.200Z,19.27
2017-03-26T00:29:21.420Z,19.27
2017-03-26T00:30:31.390Z,19.2
2017-03-26T00:31:41.667Z,19.24
2017-03-26T00:32:51.008Z,19.19
2017-03-26T00:34:01.285Z,19.27
2017-03-26T00:35:11.193Z,19.35
2017-03-26T00:36:21.156Z,19.24
2017-03-26T00:37:31.420Z,19.32
2017-03-26T00:38:41.388Z,19.29
2017-03-26T00:39:51.364Z,19.26
2017-03-26T00:41:01.577Z,19.23
2017-03-26T00:42:11.224Z,19.23
2017-03-26T00:43:21.258Z,19.27
2017-03-26T00:44:31.227Z,19.24
2017-03-26T00:45:41.501Z,19.2
2017-03-26T00:46:51.766Z,19.24
2017-03-26T00:48:01.731Z,19.24
2017-03-26T00:49:12.021Z,19.24
2017-03-26T00:50:22.301Z,19.2
2017-03-26T00:51:32.572Z,19.24
2017-03-26T00:52:42.514Z,19.2
2017-03-26T00:53:52.177Z,19.26
2017-03-26T00:55:02.141Z,19.27
2017-03-26T00:56:12.422Z,19.27
2017-03-26T00:57:22.688Z,19.19
2017-03-26T00:58:33.224Z,19.19
2017-03-26T00:59:43.188Z,19.23
2017-03-26T01:00:53.142Z,19.2
2017-03-26T01:02:03.133Z,19.19
2017-03-26T01:03:13.093Z,19.24
2017-03-26T01:04:23.043Z,19.22
2017-03-26T01:05:33.311Z,19.2
2017-03-26T01:06:43.283Z,19.26
2017-03-26T01:07:53.556Z,19.2
2017-03-26T01:09:03.841Z,19.2
2017-03-26T01:10:13.443Z,19.2
2017-03-26T01:11:23.398Z,19.22
2017-03-26T01:12:33.064Z,19.24
2017-03-26T01:13:43.033Z,19.2
2017-03-26T01:14:53.359Z,19.23
2017-03-26T01:16:03.560Z,19.12
2017-03-26T01:17:13.522Z,19.26
2017-03-26T01:18:23.846Z,19.24
2017-03-26T01:19:34.124Z,19.19
2017-03-26T01:20:44.393Z,19.15
2017-03-26T01:21:54.596Z,19.26
2017-03-26T01:23:04.891Z,19.2
2017-03-26T01:24:14.863Z,19.22
2017-03-26T01:25:25.139Z,19.15
2017-03-26T01:26:35.110Z,19.22
2017-03-26T01:27:45.335Z,19.22
2017-03-26T01:28:55.620Z,19.19
2017-03-26T01:30:05.910Z,19.23
2017-03-26T01:31:15.870Z,19.19
2017-03-26T01:32:26.156Z,19.24
2017-03-26T01:33:36.062Z,19.17
2017-03-26T01:34:46.331Z,19.2
2017-03-26T01:35:56.288Z,19.19
2017-03-26T01:37:05.935Z,19.15
2017-03-26T01:38:15.891Z,19.17
2017-03-26T01:39:26.159Z,19.2
2017-03-26T01:40:36.438Z,19.22
2017-03-26T01:41:46.403Z,19.15
2017-03-26T01:42:56.676Z,19.2
2017-03-26T01:44:07.162Z,19.23
2017-03-26T01:45:17.678Z,19.19
2017-03-26T01:46:27.640Z,19.16
2017-03-26T01:47:37.602Z,19.2
2017-03-26T01:48:47.252Z,19.19
2017-03-26T01:49:57.524Z,19.24
2017-03-26T01:51:07.432Z,19.17
2017-03-26T01:52:17.723Z,19.12
2017-03-26T01:53:27.676Z,19.19
2017-03-26T01:54:37.336Z,19.2
2017-03-26T01:55:46.990Z,19.23
2017-03-26T01:56:57.715Z,19.2
2017-03-26T01:58:07.987Z,19.09
2017-03-26T01:59:18.267Z,19.2
2017-03-26T02:00:28.225Z,19.19
2017-03-26T02:01:38.497Z,19.16
2017-03-26T02:02:49.018Z,19.11
2017-03-26T02:03:58.977Z,19.17
2017-03-26T02:05:09.278Z,19.19
2017-03-26T02:06:19.244Z,19.15
2017-03-26T02:07:29.214Z,19.2
2017-03-26T02:08:39.791Z,19.15
2017-03-26T02:09:50.070Z,19.12
2017-03-26T02:11:00.342Z,19.19
2017-03-26T02:12:10.307Z,19.09
2017-03-26T02:13:20.279Z,19.19
2017-03-26T02:14:30.547Z,19.12
2017-03-26T02:15:40.517Z,19.22
2017-03-26T02:16:50.474Z,19.2
2017-03-26T02:18:00.433Z,19.23
2017-03-26T02:19:10.710Z,19.15
2017-03-26T02:20:20.918Z,19.15
2017-03-26T02:21:31.179Z,19.15
2017-03-26T02:22:41.161Z,19.19
2017-03-26T02:23:50.823Z,19.15
2017-03-26T02:25:00.472Z,19.22
2017-03-26T02:26:10.992Z,19.17
2017-03-26T02:27:20.957Z,19.23
2017-03-26T02:28:30.925Z,19.19
2017-03-26T02:29:41.194Z,19.2
2017-03-26T02:30:51.472Z,19.17
2017-03-26T02:32:01.736Z,19.17
2017-03-26T02:33:11.705Z,19.09
2017-03-26T02:34:21.973Z,19.19
2017-03-26T02:35:32.252Z,19.16
2017-03-26T02:36:42.218Z,19.19
2017-03-26T02:37:52.737Z,19.04
2017-03-26T02:39:02.699Z,19.15
2017-03-26T02:40:12.671Z,19.24
2017-03-26T02:41:22.624Z,19.17
2017-03-26T02:42:32.585Z,19.08
2017-03-26T02:43:42.489Z,19.15
2017-03-26T02:44:52.135Z,19.2
2017-03-26T02:46:02.098Z,19.15
2017-03-26T02:47:12.371Z,19.08
2017-03-26T02:48:22.019Z,19.11
2017-03-26T02:49:32.547Z,19.17
2017-03-26T02:50:42.818Z,19.05
2017-03-26T02:51:52.463Z,19.15
2017-03-26T02:53:02.734Z,19.19
2017-03-26T02:54:13.012Z,19.08
2017-03-26T02:55:23.588Z,19.09
2017-03-26T02:56:33.543Z,19.01
2017-03-26T02:57:43.503Z,19.01
2017-03-26T02:58:53.469Z,19.08
2017-03-26T03:00:03.742Z,19.08
2017-03-26T03:01:13.636Z,19.12
2017-03-26T03:02:23.921Z,19.01
2017-03-26T03:03:33.896Z,19.2
2017-03-26T03:04:43.857Z,19.05
2017-03-26T03:05:54.124Z,19.19
2017-03-26T03:07:04.385Z,19.07
2017-03-26T03:08:14.030Z,19.07
2017-03-26T03:09:23.999Z,19.05
2017-03-26T03:10:34.275Z,19.08
2017-03-26T03:11:44.239Z,19.07
2017-03-26T03:12:54.811Z,19.07
2017-03-26T03:14:05.089Z,19.05
2017-03-26T03:15:15.355Z,19.07
2017-03-26T03:16:24.999Z,19.08
2017-03-26T03:17:35.269Z,19.08
2017-03-26T03:18:45.794Z,19.01
2017-03-26T03:19:56.069Z,19.07
2017-03-26T03:21:06.023Z,19.08
2017-03-26T03:22:15.989Z,19.11
2017-03-26T03:23:25.984Z,19.09
2017-03-26T03:24:36.509Z,19.08
2017-03-26T03:25:46.466Z,19.07
2017-03-26T03:26:56.424Z,19.08
2017-03-26T03:28:06.702Z,19.11
2017-03-26T03:29:16.975Z,19.11
2017-03-26T03:30:26.883Z,19.09
2017-03-26T03:31:36.568Z,19.07
2017-03-26T03:32:46.834Z,19.08
2017-03-26T03:33:56.798Z,19.05
2017-03-26T03:35:07.071Z,19.12
2017-03-26T03:36:17.328Z,19.07
2017-03-26T03:37:26.976Z,19.05
2017-03-26T03:38:37.253Z,19.04
2017-03-26T03:39:47.219Z,19.01
2017-03-26T03:40:57.489Z,19.07
2017-03-26T03:42:07.698Z,19.05
2017-03-26T03:43:17.666Z,19.07
2017-03-26T03:44:27.630Z,19.05
2017-03-26T03:45:37.909Z,19.12
2017-03-26T03:46:48.193Z,19.01
2017-03-26T03:47:58.708Z,19.04
2017-03-26T03:49:09.003Z,19.01
2017-03-26T03:50:19.268Z,19.08
2017-03-26T03:51:29.225Z,19.01
2017-03-26T03:52:39.197Z,19.08
2017-03-26T03:53:49.730Z,19.08
2017-03-26T03:55:00.008Z,19.04
2017-03-26T03:56:09.660Z,18.97
2017-03-26T03:57:19.979Z,19.09
2017-03-26T03:58:30.254Z,19
2017-03-26T03:59:40.788Z,18.98
2017-03-26T04:00:50.747Z,19.07
2017-03-26T04:02:00.399Z,19.01
2017-03-26T04:03:10.679Z,19
2017-03-26T04:04:20.954Z,18.98
2017-03-26T04:05:31.233Z,18.98
2017-03-26T04:06:41.499Z,18.96
2017-03-26T04:07:51.767Z,18.97
2017-03-26T04:09:01.731Z,19.01
2017-03-26T04:10:12.011Z,18.98
2017-03-26T04:11:21.644Z,18.98
2017-03-26T04:12:31.917Z,19.04
2017-03-26T04:13:41.879Z,19.01
2017-03-26T04:14:51.219Z,19.04
2017-03-26T04:16:00.866Z,19
2017-03-26T04:17:11.079Z,19.04
2017-03-26T04:18:21.347Z,19.05
2017-03-26T04:19:31.310Z,19.01
2017-03-26T04:20:41.584Z,19.05
2017-03-26T04:21:51.856Z,18.98
2017-03-26T04:23:02.078Z,19.01
2017-03-26T04:24:12.345Z,19
2017-03-26T04:25:22.617Z,19
2017-03-26T04:26:32.887Z,19.01
2017-03-26T04:27:43.159Z,18.97
2017-03-26T04:28:53.837Z,18.94
2017-03-26T04:30:04.099Z,18.94
2017-03-26T04:31:13.755Z,18.91
2017-03-26T04:32:24.028Z,19
2017-03-26T04:33:33.993Z,18.97
2017-03-26T04:34:43.900Z,18.98
2017-03-26T04:35:53.859Z,18.98
2017-03-26T04:37:03.516Z,19.01
2017-03-26T04:38:13.168Z,19
2017-03-26T04:39:23.448Z,18.91
2017-03-26T04:40:33.976Z,18.88
2017-03-26T04:41:44.244Z,18.91
2017-03-26T04:42:54.525Z,18.88
2017-03-26T04:44:04.485Z,18.89
2017-03-26T04:45:14.517Z,18.91
2017-03-26T04:46:25.045Z,19
2017-03-26T04:47:35.321Z,18.91
2017-03-26T04:48:45.287Z,18.91
2017-03-26T04:49:55.558Z,18.96
2017-03-26T04:51:05.830Z,18.91
2017-03-26T04:52:16.351Z,18.94
2017-03-26T04:53:26.631Z,18.91
2017-03-26T04:54:36.895Z,18.92
2017-03-26T04:55:46.546Z,18.88
2017-03-26T04:56:56.498Z,18.94
2017-03-26T04:58:07.014Z,18.92
2017-03-26T04:59:16.974Z,18.96
2017-03-26T05:00:26.936Z,18.91
2017-03-26T05:01:37.202Z,18.92
2017-03-26T05:02:47.164Z,18.91
2017-03-26T05:03:57.381Z,18.92
2017-03-26T05:05:07.333Z,18.96
2017-03-26T05:06:17.372Z,18.94
2017-03-26T05:07:27.323Z,18.96
2017-03-26T05:08:36.963Z,18.91
2017-03-26T05:09:46.917Z,18.92
2017-03-26T05:10:56.872Z,18.88
2017-03-26T05:12:06.257Z,18.92
2017-03-26T05:13:16.216Z,18.98
2017-03-26T05:14:26.500Z,18.92
2017-03-26T05:15:36.801Z,18.92
2017-03-26T05:16:46.757Z,18.92
2017-03-26T05:17:56.721Z,18.88
2017-03-26T05:19:06.990Z,18.91
2017-03-26T05:20:17.276Z,18.91
2017-03-26T05:21:27.478Z,18.92
2017-03-26T05:22:37.127Z,18.91
2017-03-26T05:23:47.101Z,18.88
2017-03-26T05:24:56.444Z,18.96
2017-03-26T05:26:06.405Z,18.94
2017-03-26T05:27:16.920Z,18.94
2017-03-26T05:28:27.206Z,18.96
2017-03-26T05:29:37.168Z,19
2017-03-26T05:30:47.440Z,18.85
2017-03-26T05:31:57.707Z,18.91
2017-03-26T05:33:08.222Z,18.97
2017-03-26T05:34:18.182Z,18.96
2017-03-26T05:35:28.455Z,18.96
2017-03-26T05:36:38.735Z,19.01
2017-03-26T05:37:49.003Z,18.98
2017-03-26T05:38:59.526Z,19.04
2017-03-26T05:40:09.501Z,18.97
2017-03-26T05:41:19.793Z,19.09
2017-03-26T05:42:29.781Z,19.04
2017-03-26T05:43:39.738Z,19.04
2017-03-26T05:44:50.274Z,19.01
2017-03-26T05:46:00.539Z,18.97
2017-03-26T05:47:10.814Z,18.97
2017-03-26T05:48:21.089Z,19.01
2017-03-26T05:49:30.736Z,19.05
2017-03-26T05:50:41.306Z,19.07
2017-03-26T05:51:50.960Z,19.07
2017-03-26T05:53:01.242Z,19.09
2017-03-26T05:54:11.521Z,19.08
2017-03-26T05:55:21.478Z,19.05
2017-03-26T05:56:31.996Z,19.05
2017-03-26T05:57:42.267Z,19.15
2017-03-26T05:58:52.541Z,19.07
2017-03-26T06:00:02.814Z,19.08
2017-03-26T06:01:12.771Z,19.07
2017-03-26T06:02:23.307Z,19.08
2017-03-26T06:03:33.595Z,19.08
2017-03-26T06:04:43.253Z,19.05
2017-03-26T06:05:53.531Z,19.11
2017-03-26T06:07:03.488Z,19.09
2017-03-26T06:08:14.055Z,19.08
2017-03-26T06:09:24.021Z,19.16
2017-03-26T06:10:34.492Z,19.19
2017-03-26T06:11:44.131Z,19.2
2017-03-26T06:12:53.789Z,19.2
2017-03-26T06:14:04.318Z,19.17
2017-03-26T06:15:14.600Z,19.15
2017-03-26T06:16:24.865Z,19.16
2017-03-26T06:17:35.144Z,19.2
2017-03-26T06:18:44.797Z,19.19
2017-03-26T06:19:55.344Z,19.15
2017-03-26T06:21:05.298Z,19.19
2017-03-26T06:22:15.573Z,19.19
2017-03-26T06:23:25.227Z,19.19
2017-03-26T06:24:35.202Z,19.19
2017-03-26T06:25:45.721Z,19.19
2017-03-26T06:26:55.989Z,19.26
2017-03-26T06:28:05.966Z,19.24
2017-03-26T06:29:16.245Z,19.23
2017-03-26T06:30:26.216Z,19.27
2017-03-26T06:31:36.428Z,19.26
2017-03-26T06:32:46.692Z,19.23
2017-03-26T06:33:56.343Z,19.26
2017-03-26T06:35:06.313Z,19.3
2017-03-26T06:36:16.286Z,19.34
2017-03-26T06:37:26.182Z,19.29
2017-03-26T06:38:35.832Z,19.29
2017-03-26T06:39:45.803Z,19.29
2017-03-26T06:40:55.764Z,19.32
2017-03-26T06:42:05.712Z,19.29
2017-03-26T06:43:15.301Z,19.35
2017-03-26T06:44:25.276Z,19.34
2017-03-26T06:45:35.550Z,19.29
2017-03-26T06:46:45.821Z,19.3
2017-03-26T06:47:55.776Z,19.41
2017-03-26T06:49:05.984Z,19.34
2017-03-26T06:50:15.963Z,19.3
2017-03-26T06:51:25.616Z,19.34
2017-03-26T06:52:35.620Z,19.34
2017-03-26T06:53:45.611Z,19.39
2017-03-26T06:54:55.863Z,19.38
2017-03-26T06:56:05.824Z,19.38
2017-03-26T06:57:16.085Z,19.34
2017-03-26T06:58:26.046Z,19.37
2017-03-26T06:59:36.018Z,19.35
2017-03-26T07:00:46.536Z,19.35
2017-03-26T07:01:56.806Z,19.35
2017-03-26T07:03:06.784Z,19.38
2017-03-26T07:04:17.078Z,19.39
2017-03-26T07:05:27.039Z,19.34
2017-03-26T07:06:37.255Z,19.45
2017-03-26T07:07:47.526Z,19.48
2017-03-26T07:08:57.179Z,19.39
2017-03-26T07:10:07.156Z,19.42
2017-03-26T07:11:17.123Z,19.41
2017-03-26T07:12:27.337Z,19.49
2017-03-26T07:13:37.668Z,19.41
2017-03-26T07:14:47.937Z,19.45
2017-03-26T07:15:58.209Z,19.44
2017-03-26T07:17:08.169Z,19.47
2017-03-26T07:18:18.380Z,19.49
2017-03-26T07:19:28.720Z,19.44
2017-03-26T07:20:38.982Z,19.49
2017-03-26T07:21:48.641Z,19.52
2017-03-26T07:22:58.614Z,19.42
2017-03-26T07:24:08.837Z,19.41
2017-03-26T07:25:19.109Z,19.41
2017-03-26T07:26:29.386Z,19.39
2017-03-26T07:27:39.039Z,19.48
2017-03-26T07:28:49.007Z,19.48
2017-03-26T07:29:59.544Z,19.41
2017-03-26T07:31:09.832Z,19.57
2017-03-26T07:32:20.102Z,19.49
2017-03-26T07:33:30.067Z,19.6
2017-03-26T07:34:40.341Z,19.56
2017-03-26T07:35:50.292Z,19.45
2017-03-26T07:37:00.565Z,19.53
2017-03-26T07:38:10.544Z,19.53
2017-03-26T07:39:20.498Z,19.55
2017-03-26T07:40:30.777Z,19.55
2017-03-26T07:41:41.304Z,19.57
2017-03-26T07:42:51.278Z,19.55
2017-03-26T07:44:01.245Z,19.49
2017-03-26T07:45:11.208Z,19.48
2017-03-26T07:46:21.166Z,19.55
2017-03-26T07:47:31.742Z,19.56
2017-03-26T07:48:41.705Z,19.56
2017-03-26T07:49:51.995Z,19.55
2017-03-26T07:51:02.275Z,19.6
2017-03-26T07:52:12.229Z,19.56
2017-03-26T07:53:22.490Z,19.53
2017-03-26T07:54:32.453Z,19.66
2017-03-26T07:55:42.752Z,19.52
2017-03-26T07:56:52.729Z,19.57
2017-03-26T07:58:02.378Z,19.53
2017-03-26T07:59:12.906Z,19.55
2017-03-26T08:00:22.867Z,19.53
2017-03-26T08:01:32.831Z,19.57
2017-03-26T08:02:42.475Z,19.59
2017-03-26T08:03:52.767Z,19.57
2017-03-26T08:05:03.301Z,19.56
2017-03-26T08:06:13.328Z,19.64
2017-03-26T08:07:23.596Z,19.6
2017-03-26T08:08:33.877Z,19.62
2017-03-26T08:09:44.146Z,19.55
2017-03-26T08:10:54.362Z,19.64
2017-03-26T08:12:04.636Z,19.62
2017-03-26T08:13:14.914Z,19.55
2017-03-26T08:14:24.564Z,19.59
2017-03-26T08:15:34.834Z,19.6
2017-03-26T08:16:45.363Z,19.56
2017-03-26T08:17:55.011Z,19.57
2017-03-26T08:19:05.284Z,19.62
2017-03-26T08:20:15.559Z,19.62
2017-03-26T08:21:25.537Z,19.57
2017-03-26T08:22:36.063Z,19.62
2017-03-26T08:23:46.336Z,19.57
2017-03-26T08:24:55.989Z,19.55
2017-03-26T08:26:05.640Z,19.62
2017-03-26T08:27:15.607Z,19.56
2017-03-26T08:28:25.831Z,19.62
2017-03-26T08:29:36.118Z,19.49
2017-03-26T08:30:46.388Z,19.6
2017-03-26T08:31:56.351Z,19.59
2017-03-26T08:33:06.638Z,19.57
2017-03-26T08:34:17.219Z,19.62
2017-03-26T08:35:26.566Z,19.6
2017-03-26T08:36:36.539Z,19.53
2017-03-26T08:37:46.505Z,19.62
2017-03-26T08:38:56.152Z,19.56
2017-03-26T08:40:06.689Z,19.53
2017-03-26T08:41:17.025Z,19.56
2017-03-26T08:42:26.751Z,19.63
2017-03-26T08:43:36.402Z,19.55
2017-03-26T08:44:46.687Z,19.57
2017-03-26T08:45:56.946Z,19.62
2017-03-26T08:47:06.924Z,19.56
2017-03-26T08:48:17.213Z,19.64
2017-03-26T08:49:27.185Z,19.56
2017-03-26T08:50:37.169Z,19.66
2017-03-26T08:51:47.391Z,19.62
2017-03-26T08:52:57.681Z,19.62
2017-03-26T08:54:07.968Z,19.66
2017-03-26T08:55:18.260Z,19.56
2017-03-26T08:56:28.214Z,19.66
2017-03-26T08:57:38.797Z,19.62
2017-03-26T08:58:48.772Z,19.62
2017-03-26T08:59:58.427Z,19.64
2017-03-26T09:01:08.719Z,19.67
2017-03-26T09:02:18.062Z,19.67
2017-03-26T09:03:28.627Z,19.55
2017-03-26T09:04:38.593Z,19.67
2017-03-26T09:05:48.877Z,19.72
2017-03-26T09:06:58.543Z,19.75
2017-03-26T09:08:08.816Z,19.72
2017-03-26T09:09:19.033Z,19.71
2017-03-26T09:10:29.012Z,19.81
2017-03-26T09:11:38.968Z,19.78
2017-03-26T09:12:48.619Z,19.84
2017-03-26T09:13:58.280Z,19.85
2017-03-26T09:15:08.547Z,19.82
2017-03-26T09:16:18.849Z,19.82
2017-03-26T09:17:28.509Z,19.72
2017-03-26T09:18:38.477Z,19.89
2017-03-26T09:19:48.467Z,19.92
2017-03-26T09:20:58.982Z,19.82
2017-03-26T09:22:08.959Z,19.82
2017-03-26T09:23:18.616Z,19.89
2017-03-26T09:24:28.899Z,19.85
2017-03-26T09:25:39.171Z,19.82
2017-03-26T09:26:49.074Z,19.87
2017-03-26T09:27:59.373Z,19.82
2017-03-26T09:29:09.347Z,19.9
2017-03-26T09:30:19.315Z,19.89
2017-03-26T09:31:29.276Z,19.87
2017-03-26T09:32:39.859Z,19.85
2017-03-26T09:33:50.140Z,19.89
2017-03-26T09:35:00.429Z,19.87
2017-03-26T09:36:10.400Z,19.93
2017-03-26T09:37:20.381Z,19.89
2017-03-26T09:38:30.606Z,19.89
2017-03-26T09:39:40.577Z,19.89
2017-03-26T09:40:50.846Z,19.85
2017-03-26T09:42:00.815Z,19.97
2017-03-26T09:43:10.784Z,19.87
2017-03-26T09:44:20.745Z,19.89
2017-03-26T09:45:31.030Z,19.9
2017-03-26T09:46:40.999Z,19.87
2017-03-26T09:47:51.290Z,19.85
2017-03-26T09:49:01.260Z,19.87
2017-03-26T09:50:11.808Z,19.96
2017-03-26T09:51:22.095Z,19.92
2017-03-26T09:52:32.374Z,19.87
2017-03-26T09:53:42.342Z,19.89
2017-03-26T09:54:52.631Z,19.82
2017-03-26T09:56:02.289Z,19.84
2017-03-26T09:57:12.258Z,19.81
2017-03-26T09:58:22.224Z,19.87
2017-03-26T09:59:32.492Z,19.78
2017-03-26T10:00:42.457Z,19.84
2017-03-26T10:01:52.996Z,19.84
2017-03-26T10:03:02.966Z,19.81
2017-03-26T10:04:13.237Z,19.84
2017-03-26T10:05:23.235Z,19.75
2017-03-26T10:06:33.212Z,19.85
2017-03-26T10:07:43.429Z,19.75
2017-03-26T10:08:53.732Z,19.75
2017-03-26T10:10:04.024Z,19.79
2017-03-26T10:11:13.976Z,19.77
2017-03-26T10:12:24.262Z,19.85
2017-03-26T10:13:34.173Z,19.85
2017-03-26T10:14:44.184Z,19.87
2017-03-26T10:15:54.211Z,19.81
2017-03-26T10:17:04.492Z,19.78
2017-03-26T10:18:14.481Z,19.75
2017-03-26T10:19:24.703Z,19.87
2017-03-26T10:20:34.670Z,19.74
2017-03-26T10:21:44.640Z,19.87
2017-03-26T10:22:54.295Z,19.84
2017-03-26T10:24:04.587Z,19.87
2017-03-26T10:25:14.818Z,19.82
2017-03-26T10:26:25.099Z,19.87
2017-03-26T10:27:34.754Z,19.89
2017-03-26T10:28:45.076Z,19.85
2017-03-26T10:29:55.353Z,19.84
2017-03-26T10:31:05.881Z,19.9
2017-03-26T10:32:16.168Z,19.85
2017-03-26T10:33:26.144Z,19.82
2017-03-26T10:34:35.504Z,19.89
2017-03-26T10:35:45.468Z,19.85
2017-03-26T10:36:56.044Z,19.79
2017-03-26T10:38:05.397Z,19.77
2017-03-26T10:39:15.676Z,19.87
2017-03-26T10:40:25.660Z,19.72
2017-03-26T10:41:34.691Z,19.78
2017-03-26T10:42:45.228Z,19.81
2017-03-26T10:43:55.190Z,19.78
2017-03-26T10:45:05.476Z,19.82
2017-03-26T10:46:15.439Z,19.79
2017-03-26T10:47:25.411Z,19.85
2017-03-26T10:48:35.687Z,19.78
2017-03-26T10:49:45.659Z,19.77
2017-03-26T10:50:55.622Z,19.79
2017-03-26T10:52:05.929Z,19.81
2017-03-26T10:53:16.222Z,19.79
2017-03-26T10:54:26.489Z,19.85
2017-03-26T10:55:36.145Z,19.77
2017-03-26T10:56:46.420Z,19.85
2017-03-26T10:57:56.721Z,19.85
2017-03-26T10:59:07.034Z,19.75
2017-03-26T11:00:17.256Z,19.82
2017-03-26T11:01:27.545Z,19.77
2017-03-26T11:02:37.524Z,19.78
2017-03-26T11:03:47.487Z,19.87
2017-03-26T11:04:57.773Z,19.74
2017-03-26T11:06:08.334Z,19.87
2017-03-26T11:07:18.619Z,19.75
2017-03-26T11:08:28.914Z,19.84
2017-03-26T11:09:38.885Z,19.75
2017-03-26T11:10:48.568Z,19.75
2017-03-26T11:11:58.464Z,19.81
2017-03-26T11:13:08.432Z,19.75
2017-03-26T11:14:18.712Z,19.85
2017-03-26T11:15:28.668Z,19.84
2017-03-26T11:16:38.642Z,19.85
2017-03-26T11:17:49.172Z,19.85
2017-03-26T11:18:59.451Z,19.84
2017-03-26T11:20:09.764Z,19.87
2017-03-26T11:21:19.440Z,19.81
2017-03-26T11:22:29.401Z,19.87
2017-03-26T11:23:39.615Z,19.81
2017-03-26T11:24:49.913Z,19.78
2017-03-26T11:25:59.889Z,19.84
2017-03-26T11:27:09.911Z,19.75
2017-03-26T11:28:19.873Z,19.84
2017-03-26T11:29:30.087Z,19.75
2017-03-26T11:30:40.058Z,19.85
2017-03-26T11:31:50.023Z,19.84
2017-03-26T11:32:59.680Z,19.79
2017-03-26T11:34:09.054Z,19.74
2017-03-26T11:35:19.602Z,19.85
2017-03-26T11:36:29.563Z,19.77
2017-03-26T11:37:39.853Z,19.78
2017-03-26T11:38:49.826Z,19.82
2017-03-26T11:39:59.808Z,19.84
2017-03-26T11:41:10.344Z,19.84
2017-03-26T11:42:20.000Z,19.81
2017-03-26T11:43:30.287Z,19.84
2017-03-26T11:44:40.253Z,19.75
2017-03-26T11:45:50.221Z,19.75
2017-03-26T11:47:00.759Z,19.87
2017-03-26T11:48:10.727Z,19.82
2017-03-26T11:49:21.029Z,19.82
2017-03-26T11:50:31.001Z,19.75
2017-03-26T11:51:41.292Z,19.72
2017-03-26T11:52:51.823Z,19.74
2017-03-26T11:54:02.103Z,19.78
2017-03-26T11:55:12.390Z,19.82
2017-03-26T11:56:22.666Z,19.79
2017-03-26T11:57:32.942Z,19.75
2017-03-26T11:58:43.478Z,19.82
2017-03-26T11:59:53.788Z,19.82
2017-03-26T12:01:04.070Z,19.75
2017-03-26T12:02:14.037Z,19.81
2017-03-26T12:03:24.007Z,19.79
2017-03-26T12:04:34.546Z,19.84
2017-03-26T12:05:44.509Z,19.75
2017-03-26T12:06:54.784Z,19.82
2017-03-26T12:08:05.058Z,19.87
2017-03-26T12:09:15.038Z,19.87
2017-03-26T12:10:25.251Z,19.89
2017-03-26T12:11:34.617Z,19.77
2017-03-26T12:12:44.274Z,19.75
2017-03-26T12:13:54.262Z,19.77
2017-03-26T12:15:04.253Z,19.82
2017-03-26T12:16:14.784Z,19.82
2017-03-26T12:17:24.786Z,19.89
2017-03-26T12:18:34.447Z,19.9
2017-03-26T12:19:44.736Z,19.82
2017-03-26T12:20:55.020Z,19.85
2017-03-26T12:22:05.232Z,19.82
2017-03-26T12:23:15.510Z,19.85
2017-03-26T12:24:25.814Z,19.82
2017-03-26T12:25:35.792Z,19.82
2017-03-26T12:26:45.759Z,19.82
2017-03-26T12:27:55.661Z,19.78
2017-03-26T12:29:05.627Z,19.89
2017-03-26T12:30:15.910Z,19.89
2017-03-26T12:31:26.196Z,19.82
2017-03-26T12:32:36.495Z,19.85
2017-03-26T12:33:46.788Z,19.84
2017-03-26T12:34:56.460Z,19.84
2017-03-26T12:36:06.763Z,19.75
2017-03-26T12:37:17.066Z,19.84
2017-03-26T12:38:27.350Z,19.74
2017-03-26T12:39:37.909Z,19.84
2017-03-26T12:40:47.581Z,19.85
2017-03-26T12:41:57.868Z,19.82
2017-03-26T12:43:07.844Z,19.74
2017-03-26T12:44:18.147Z,19.72
2017-03-26T12:45:28.424Z,19.85
2017-03-26T12:46:38.716Z,19.85
2017-03-26T12:47:49.007Z,19.82
2017-03-26T12:48:59.291Z,19.85
2017-03-26T12:50:09.586Z,19.77
2017-03-26T12:51:19.848Z,19.82
2017-03-26T12:52:29.201Z,19.75
2017-03-26T12:53:39.483Z,19.84
2017-03-26T12:54:49.760Z,19.75
2017-03-26T12:55:59.421Z,19.75
2017-03-26T12:57:10.253Z,19.79
2017-03-26T12:58:20.215Z,19.84
2017-03-26T12:59:30.494Z,19.89
2017-03-26T13:00:40.780Z,19.81
2017-03-26T13:01:50.737Z,19.74
2017-03-26T13:03:01.313Z,19.74
2017-03-26T13:04:11.585Z,19.74
2017-03-26T13:05:21.864Z,19.79
2017-03-26T13:06:32.228Z,19.79
2017-03-26T13:07:42.207Z,19.79
2017-03-26T13:08:52.177Z,19.78
2017-03-26T13:10:02.148Z,19.75
2017-03-26T13:11:12.437Z,19.79
2017-03-26T13:12:22.712Z,19.87
2017-03-26T13:13:32.696Z,19.82
2017-03-26T13:14:42.930Z,19.85
2017-03-26T13:15:52.630Z,19.84
2017-03-26T13:17:02.307Z,19.84
2017-03-26T13:18:11.959Z,19.89
2017-03-26T13:19:21.621Z,19.77
2017-03-26T13:20:32.209Z,19.89
2017-03-26T13:21:41.868Z,19.82
2017-03-26T13:22:52.214Z,19.85
2017-03-26T13:24:02.218Z,19.75
2017-03-26T13:25:12.180Z,19.84
2017-03-26T13:26:22.754Z,19.75
2017-03-26T13:27:33.029Z,19.89
2017-03-26T13:28:43.305Z,19.78
2017-03-26T13:29:53.582Z,19.85
2017-03-26T13:31:03.553Z,19.78
2017-03-26T13:32:13.818Z,19.85
2017-03-26T13:33:23.786Z,19.79
2017-03-26T13:34:34.079Z,19.81
2017-03-26T13:35:44.355Z,19.84
2017-03-26T13:36:54.635Z,19.84
2017-03-26T13:38:04.670Z,19.75
2017-03-26T13:39:14.649Z,19.75
2017-03-26T13:40:24.623Z,19.74
2017-03-26T13:41:34.908Z,19.84
2017-03-26T13:42:44.880Z,19.85
2017-03-26T13:43:55.408Z,19.82
2017-03-26T13:45:05.385Z,19.92
2017-03-26T13:46:15.362Z,19.89
2017-03-26T13:47:25.655Z,19.75
2017-03-26T13:48:35.842Z,19.85
2017-03-26T13:49:46.432Z,19.85
2017-03-26T13:50:56.412Z,19.92
2017-03-26T13:52:06.394Z,19.94
2017-03-26T13:53:16.685Z,19.92
2017-03-26T13:54:26.975Z,19.82
2017-03-26T13:55:37.505Z,19.87
2017-03-26T13:56:47.477Z,19.93
2017-03-26T13:57:57.767Z,19.87
2017-03-26T13:59:08.049Z,19.85
2017-03-26T14:00:18.333Z,19.84
2017-03-26T14:01:28.872Z,19.92
2017-03-26T14:02:38.870Z,19.92
2017-03-26T14:03:48.573Z,19.9
2017-03-26T14:04:58.565Z,19.85
2017-03-26T14:06:08.843Z,19.9
2017-03-26T14:07:18.795Z,19.87
2017-03-26T14:08:28.777Z,19.94
2017-03-26T14:09:51.507Z,19.9
2017-03-26T14:11:01.849Z,19.89
2017-03-26T14:12:11.828Z,19.9
2017-03-26T14:13:22.405Z,19.87
2017-03-26T14:14:32.089Z,19.85
2017-03-26T14:15:42.390Z,19.87
2017-03-26T14:16:52.670Z,19.82
2017-03-26T14:18:03.256Z,19.82
2017-03-26T14:19:13.228Z,19.87
2017-03-26T14:20:23.516Z,19.84
2017-03-26T14:21:33.787Z,19.89
2017-03-26T14:22:43.755Z,19.89
2017-03-26T14:23:53.985Z,19.89
2017-03-26T14:25:04.256Z,19.89
2017-03-26T14:26:14.537Z,19.9
2017-03-26T14:27:24.507Z,19.87
2017-03-26T14:28:33.861Z,19.85
2017-03-26T14:29:44.124Z,19.85
2017-03-26T14:30:54.121Z,19.87
2017-03-26T14:32:04.423Z,19.87
2017-03-26T14:33:14.089Z,19.84
2017-03-26T14:34:24.370Z,19.9
2017-03-26T14:35:34.635Z,19.85
2017-03-26T14:36:44.608Z,19.87
2017-03-26T14:37:54.578Z,19.85
2017-03-26T14:39:04.245Z,19.85
2017-03-26T14:40:13.925Z,19.87
2017-03-26T14:41:24.137Z,19.89
2017-03-26T14:42:34.098Z,19.85
2017-03-26T14:43:44.381Z,19.89
2017-03-26T14:44:54.676Z,19.85
2017-03-26T14:46:04.963Z,19.87
2017-03-26T14:47:14.917Z,19.89
2017-03-26T14:48:24.591Z,19.81
2017-03-26T14:49:34.873Z,19.85
2017-03-26T14:50:45.165Z,19.9
2017-03-26T14:51:55.444Z,19.87
2017-03-26T14:53:05.982Z,19.84
2017-03-26T14:54:15.965Z,19.89
2017-03-26T14:55:25.944Z,19.87
2017-03-26T14:56:35.612Z,19.85
2017-03-26T14:57:45.911Z,19.87
2017-03-26T14:58:56.479Z,19.87
2017-03-26T15:00:06.788Z,19.92
2017-03-26T15:01:17.121Z,19.92
2017-03-26T15:02:27.110Z,19.85
2017-03-26T15:03:37.081Z,19.87
2017-03-26T15:04:47.317Z,19.84
2017-03-26T15:05:57.620Z,19.84